sensor_id;sensor_type;location;lat;lon;timestamp;P1;durP1;ratioP1;P2;durP2;ratioP2
351;SDS011;164;50.784;6.496;2023-03-14T00:01:59;4.07;;;2.35;;
351;SDS011;164;50.784;6.496;2023-03-14T00:04:26;6.10;;;2.55;;
351;SDS011;164;50.784;6.496;2023-03-14T00:06:55;5.28;;;2.80;;
351;SDS011;164;50.784;6.496;2023-03-14T00:09:22;3.72;;;2.22;;
351;SDS011;164;50.784;6.496;2023-03-14T00:11:49;5.53;;;2.55;;
351;SDS011;164;50.784;6.496;2023-03-14T00:14:17;4.97;;;2.67;;
351;SDS011;164;50.784;6.496;2023-03-14T00:16:45;8.65;;;3.33;;
351;SDS011;164;50.784;6.496;2023-03-14T00:19:12;3.30;;;1.88;;
351;SDS011;164;50.784;6.496;2023-03-14T00:21:40;7.60;;;3.05;;
351;SDS011;164;50.784;6.496;2023-03-14T00:24:09;5.13;;;2.55;;
351;SDS011;164;50.784;6.496;2023-03-14T00:26:36;9.00;;;3.22;;
351;SDS011;164;50.784;6.496;2023-03-14T00:29:03;4.75;;;2.47;;
351;SDS011;164;50.784;6.496;2023-03-14T00:31:31;7.38;;;3.05;;
351;SDS011;164;50.784;6.496;2023-03-14T00:33:58;8.80;;;2.72;;
351;SDS011;164;50.784;6.496;2023-03-14T00:36:25;5.93;;;1.88;;
351;SDS011;164;50.784;6.496;2023-03-14T00:38:52;6.88;;;2.17;;
351;SDS011;164;50.784;6.496;2023-03-14T00:41:21;4.03;;;1.80;;
351;SDS011;164;50.784;6.496;2023-03-14T00:43:49;4.40;;;1.27;;
351;SDS011;164;50.784;6.496;2023-03-14T00:46:17;3.55;;;1.50;;
351;SDS011;164;50.784;6.496;2023-03-14T00:48:45;9.85;;;2.45;;
351;SDS011;164;50.784;6.496;2023-03-14T00:51:13;4.90;;;1.80;;
351;SDS011;164;50.784;6.496;2023-03-14T00:53:40;2.30;;;1.50;;
351;SDS011;164;50.784;6.496;2023-03-14T00:56:09;7.57;;;1.70;;
351;SDS011;164;50.784;6.496;2023-03-14T00:58:38;3.28;;;2.00;;
351;SDS011;164;50.784;6.496;2023-03-14T01:01:05;4.63;;;1.70;;
351;SDS011;164;50.784;6.496;2023-03-14T01:03:33;2.05;;;1.10;;
351;SDS011;164;50.784;6.496;2023-03-14T01:06:10;4.85;;;1.27;;
351;SDS011;164;50.784;6.496;2023-03-14T01:08:38;10.13;;;2.35;;
351;SDS011;164;50.784;6.496;2023-03-14T01:11:06;11.73;;;4.15;;
351;SDS011;164;50.784;6.496;2023-03-14T01:13:33;8.02;;;3.05;;
351;SDS011;164;50.784;6.496;2023-03-14T01:16:02;5.97;;;2.75;;
351;SDS011;164;50.784;6.496;2023-03-14T01:18:30;13.95;;;3.60;;
351;SDS011;164;50.784;6.496;2023-03-14T01:20:57;7.55;;;3.20;;
351;SDS011;164;50.784;6.496;2023-03-14T01:23:25;10.70;;;3.53;;
351;SDS011;164;50.784;6.496;2023-03-14T01:25:52;7.95;;;3.58;;
351;SDS011;164;50.784;6.496;2023-03-14T01:28:20;7.50;;;2.30;;
351;SDS011;164;50.784;6.496;2023-03-14T01:30:47;4.25;;;1.50;;
351;SDS011;164;50.784;6.496;2023-03-14T01:33:15;5.47;;;1.75;;
351;SDS011;164;50.784;6.496;2023-03-14T01:35:43;6.13;;;2.15;;
351;SDS011;164;50.784;6.496;2023-03-14T01:38:10;7.13;;;3.10;;
351;SDS011;164;50.784;6.496;2023-03-14T01:40:41;7.00;;;3.40;;
351;SDS011;164;50.784;6.496;2023-03-14T01:43:13;8.23;;;3.30;;
351;SDS011;164;50.784;6.496;2023-03-14T01:48:28;4.30;;;3.00;;
351;SDS011;164;50.784;6.496;2023-03-14T01:50:58;2.85;;;1.65;;
351;SDS011;164;50.784;6.496;2023-03-14T01:53:26;5.63;;;1.20;;
351;SDS011;164;50.784;6.496;2023-03-14T01:55:54;1.67;;;1.08;;
351;SDS011;164;50.784;6.496;2023-03-14T01:58:22;1.60;;;1.02;;
351;SDS011;164;50.784;6.496;2023-03-14T02:00:50;2.42;;;1.02;;
351;SDS011;164;50.784;6.496;2023-03-14T02:03:18;2.00;;;1.10;;
351;SDS011;164;50.784;6.496;2023-03-14T02:05:48;2.35;;;0.88;;
351;SDS011;164;50.784;6.496;2023-03-14T02:08:17;2.53;;;1.00;;
351;SDS011;164;50.784;6.496;2023-03-14T02:10:45;3.80;;;1.70;;
351;SDS011;164;50.784;6.496;2023-03-14T02:13:14;4.70;;;1.35;;
351;SDS011;164;50.784;6.496;2023-03-14T02:15:41;4.93;;;1.75;;
351;SDS011;164;50.784;6.496;2023-03-14T02:18:09;3.45;;;1.52;;
351;SDS011;164;50.784;6.496;2023-03-14T02:20:38;1.95;;;1.10;;
351;SDS011;164;50.784;6.496;2023-03-14T02:23:13;3.28;;;1.83;;
351;SDS011;164;50.784;6.496;2023-03-14T02:25:42;1.48;;;1.00;;
351;SDS011;164;50.784;6.496;2023-03-14T02:28:13;4.10;;;1.75;;
351;SDS011;164;50.784;6.496;2023-03-14T02:30:41;4.10;;;2.53;;
351;SDS011;164;50.784;6.496;2023-03-14T02:33:09;4.18;;;2.53;;
351;SDS011;164;50.784;6.496;2023-03-14T02:35:37;4.45;;;2.40;;
351;SDS011;164;50.784;6.496;2023-03-14T02:38:09;6.57;;;2.20;;
351;SDS011;164;50.784;6.496;2023-03-14T02:40:37;6.50;;;2.65;;
351;SDS011;164;50.784;6.496;2023-03-14T02:43:04;6.22;;;3.20;;
351;SDS011;164;50.784;6.496;2023-03-14T02:45:37;7.50;;;3.00;;
351;SDS011;164;50.784;6.496;2023-03-14T02:48:07;3.95;;;1.50;;
351;SDS011;164;50.784;6.496;2023-03-14T02:50:35;4.88;;;1.70;;
351;SDS011;164;50.784;6.496;2023-03-14T02:53:03;4.95;;;1.95;;
351;SDS011;164;50.784;6.496;2023-03-14T02:55:30;5.00;;;2.47;;
351;SDS011;164;50.784;6.496;2023-03-14T02:57:57;5.40;;;2.95;;
351;SDS011;164;50.784;6.496;2023-03-14T03:00:24;4.72;;;1.55;;
351;SDS011;164;50.784;6.496;2023-03-14T03:02:53;6.18;;;2.10;;
351;SDS011;164;50.784;6.496;2023-03-14T03:05:20;6.50;;;2.78;;
351;SDS011;164;50.784;6.496;2023-03-14T03:07:47;9.52;;;2.35;;
351;SDS011;164;50.784;6.496;2023-03-14T03:10:15;4.90;;;2.17;;
351;SDS011;164;50.784;6.496;2023-03-14T03:12:43;7.07;;;2.70;;
351;SDS011;164;50.784;6.496;2023-03-14T03:15:10;7.82;;;2.80;;
351;SDS011;164;50.784;6.496;2023-03-14T03:17:37;6.18;;;1.65;;
351;SDS011;164;50.784;6.496;2023-03-14T03:20:06;4.85;;;2.17;;
351;SDS011;164;50.784;6.496;2023-03-14T03:22:34;5.32;;;1.92;;
351;SDS011;164;50.784;6.496;2023-03-14T03:25:01;5.93;;;1.85;;
351;SDS011;164;50.784;6.496;2023-03-14T03:27:29;3.03;;;1.40;;
351;SDS011;164;50.784;6.496;2023-03-14T03:29:57;5.25;;;2.58;;
351;SDS011;164;50.784;6.496;2023-03-14T03:32:24;4.60;;;1.83;;
351;SDS011;164;50.784;6.496;2023-03-14T03:34:52;3.75;;;2.00;;
351;SDS011;164;50.784;6.496;2023-03-14T03:37:20;4.32;;;2.00;;
351;SDS011;164;50.784;6.496;2023-03-14T03:39:49;5.72;;;1.63;;
351;SDS011;164;50.784;6.496;2023-03-14T03:42:17;3.88;;;2.53;;
351;SDS011;164;50.784;6.496;2023-03-14T03:44:44;3.90;;;2.40;;
351;SDS011;164;50.784;6.496;2023-03-14T03:47:12;4.95;;;2.45;;
351;SDS011;164;50.784;6.496;2023-03-14T03:49:39;4.60;;;2.63;;
351;SDS011;164;50.784;6.496;2023-03-14T03:52:07;2.25;;;1.40;;
351;SDS011;164;50.784;6.496;2023-03-14T03:54:36;3.10;;;2.38;;
351;SDS011;164;50.784;6.496;2023-03-14T03:57:03;6.50;;;2.30;;
351;SDS011;164;50.784;6.496;2023-03-14T03:59:30;4.20;;;2.17;;
351;SDS011;164;50.784;6.496;2023-03-14T04:01:58;2.65;;;1.50;;
351;SDS011;164;50.784;6.496;2023-03-14T04:04:26;1.70;;;1.23;;
351;SDS011;164;50.784;6.496;2023-03-14T04:06:53;1.50;;;1.25;;
351;SDS011;164;50.784;6.496;2023-03-14T04:09:20;2.33;;;1.25;;
351;SDS011;164;50.784;6.496;2023-03-14T04:11:48;2.67;;;1.50;;
351;SDS011;164;50.784;6.496;2023-03-14T04:14:16;2.35;;;1.25;;
351;SDS011;164;50.784;6.496;2023-03-14T04:16:43;5.05;;;1.88;;
351;SDS011;164;50.784;6.496;2023-03-14T04:19:10;2.50;;;1.50;;
351;SDS011;164;50.784;6.496;2023-03-14T04:21:38;3.10;;;2.00;;
351;SDS011;164;50.784;6.496;2023-03-14T04:24:10;2.13;;;0.90;;
351;SDS011;164;50.784;6.496;2023-03-14T04:26:37;1.73;;;0.70;;
351;SDS011;164;50.784;6.496;2023-03-14T04:29:06;1.17;;;0.70;;
351;SDS011;164;50.784;6.496;2023-03-14T04:31:33;1.13;;;0.80;;
351;SDS011;164;50.784;6.496;2023-03-14T04:34:00;0.75;;;0.40;;
351;SDS011;164;50.784;6.496;2023-03-14T04:36:27;0.70;;;0.50;;
351;SDS011;164;50.784;6.496;2023-03-14T04:38:55;0.60;;;0.40;;
351;SDS011;164;50.784;6.496;2023-03-14T04:41:22;0.52;;;0.40;;
351;SDS011;164;50.784;6.496;2023-03-14T04:43:49;1.05;;;0.50;;
351;SDS011;164;50.784;6.496;2023-03-14T04:46:18;1.55;;;0.77;;
351;SDS011;164;50.784;6.496;2023-03-14T04:48:45;1.40;;;0.65;;
351;SDS011;164;50.784;6.496;2023-03-14T04:51:12;1.92;;;0.60;;
351;SDS011;164;50.784;6.496;2023-03-14T04:53:39;1.38;;;0.50;;
351;SDS011;164;50.784;6.496;2023-03-14T04:56:07;1.60;;;0.88;;
351;SDS011;164;50.784;6.496;2023-03-14T04:58:35;2.00;;;1.75;;
351;SDS011;164;50.784;6.496;2023-03-14T05:01:02;1.30;;;0.80;;
351;SDS011;164;50.784;6.496;2023-03-14T05:03:31;3.55;;;1.77;;
351;SDS011;164;50.784;6.496;2023-03-14T05:05:58;1.42;;;1.15;;
351;SDS011;164;50.784;6.496;2023-03-14T05:08:26;2.05;;;1.20;;
351;SDS011;164;50.784;6.496;2023-03-14T05:10:53;1.38;;;1.02;;
351;SDS011;164;50.784;6.496;2023-03-14T05:13:21;1.20;;;0.98;;
351;SDS011;164;50.784;6.496;2023-03-14T05:15:49;0.98;;;0.80;;
351;SDS011;164;50.784;6.496;2023-03-14T05:18:17;1.67;;;0.88;;
351;SDS011;164;50.784;6.496;2023-03-14T05:20:45;1.90;;;1.00;;
351;SDS011;164;50.784;6.496;2023-03-14T05:23:13;0.80;;;0.65;;
351;SDS011;164;50.784;6.496;2023-03-14T05:25:42;1.35;;;1.17;;
351;SDS011;164;50.784;6.496;2023-03-14T05:28:09;0.98;;;0.80;;
351;SDS011;164;50.784;6.496;2023-03-14T05:30:36;5.22;;;1.50;;
351;SDS011;164;50.784;6.496;2023-03-14T05:33:03;1.55;;;1.20;;
351;SDS011;164;50.784;6.496;2023-03-14T05:35:31;1.95;;;1.27;;
351;SDS011;164;50.784;6.496;2023-03-14T05:37:59;1.20;;;0.98;;
351;SDS011;164;50.784;6.496;2023-03-14T05:40:26;2.00;;;1.33;;
351;SDS011;164;50.784;6.496;2023-03-14T05:42:54;4.28;;;1.50;;
351;SDS011;164;50.784;6.496;2023-03-14T05:45:21;1.70;;;1.15;;
351;SDS011;164;50.784;6.496;2023-03-14T05:47:48;2.10;;;1.30;;
351;SDS011;164;50.784;6.496;2023-03-14T05:50:15;1.45;;;1.10;;
351;SDS011;164;50.784;6.496;2023-03-14T05:52:43;1.30;;;0.90;;
351;SDS011;164;50.784;6.496;2023-03-14T05:55:12;1.10;;;0.85;;
351;SDS011;164;50.784;6.496;2023-03-14T05:57:39;1.42;;;0.75;;
351;SDS011;164;50.784;6.496;2023-03-14T06:00:06;0.75;;;0.57;;
351;SDS011;164;50.784;6.496;2023-03-14T06:02:34;1.88;;;0.75;;
351;SDS011;164;50.784;6.496;2023-03-14T06:05:02;0.80;;;0.75;;
351;SDS011;164;50.784;6.496;2023-03-14T06:07:29;1.00;;;0.52;;
351;SDS011;164;50.784;6.496;2023-03-14T06:09:56;1.20;;;0.55;;
351;SDS011;164;50.784;6.496;2023-03-14T06:12:25;0.75;;;0.65;;
351;SDS011;164;50.784;6.496;2023-03-14T06:14:53;1.15;;;0.70;;
351;SDS011;164;50.784;6.496;2023-03-14T06:17:20;1.00;;;0.88;;
351;SDS011;164;50.784;6.496;2023-03-14T06:19:48;1.20;;;0.93;;
351;SDS011;164;50.784;6.496;2023-03-14T06:22:15;1.08;;;0.80;;
351;SDS011;164;50.784;6.496;2023-03-14T06:24:42;1.88;;;0.75;;
351;SDS011;164;50.784;6.496;2023-03-14T06:27:10;1.27;;;0.98;;
351;SDS011;164;50.784;6.496;2023-03-14T06:29:38;1.13;;;0.88;;
351;SDS011;164;50.784;6.496;2023-03-14T06:32:05;0.95;;;0.95;;
351;SDS011;164;50.784;6.496;2023-03-14T06:34:33;1.58;;;0.80;;
351;SDS011;164;50.784;6.496;2023-03-14T06:37:00;0.75;;;0.50;;
351;SDS011;164;50.784;6.496;2023-03-14T06:39:27;1.35;;;0.70;;
351;SDS011;164;50.784;6.496;2023-03-14T06:41:56;1.08;;;0.80;;
351;SDS011;164;50.784;6.496;2023-03-14T06:44:24;1.27;;;1.15;;
351;SDS011;164;50.784;6.496;2023-03-14T06:46:52;1.45;;;1.30;;
351;SDS011;164;50.784;6.496;2023-03-14T06:49:20;2.38;;;1.42;;
351;SDS011;164;50.784;6.496;2023-03-14T06:51:47;2.97;;;2.05;;
351;SDS011;164;50.784;6.496;2023-03-14T06:54:14;3.58;;;2.50;;
351;SDS011;164;50.784;6.496;2023-03-14T06:56:41;3.50;;;2.72;;
351;SDS011;164;50.784;6.496;2023-03-14T06:59:09;3.50;;;2.35;;
351;SDS011;164;50.784;6.496;2023-03-14T07:01:36;3.35;;;2.10;;
351;SDS011;164;50.784;6.496;2023-03-14T07:04:05;3.15;;;2.10;;
351;SDS011;164;50.784;6.496;2023-03-14T07:06:32;3.85;;;2.42;;
351;SDS011;164;50.784;6.496;2023-03-14T07:09:00;2.88;;;1.20;;
351;SDS011;164;50.784;6.496;2023-03-14T07:11:27;2.08;;;0.95;;
351;SDS011;164;50.784;6.496;2023-03-14T07:13:54;2.75;;;1.13;;
351;SDS011;164;50.784;6.496;2023-03-14T07:16:22;1.65;;;0.80;;
351;SDS011;164;50.784;6.496;2023-03-14T07:18:49;1.70;;;0.30;;
351;SDS011;164;50.784;6.496;2023-03-14T07:21:18;1.48;;;0.68;;
351;SDS011;164;50.784;6.496;2023-03-14T07:23:46;2.88;;;0.95;;
351;SDS011;164;50.784;6.496;2023-03-14T07:26:13;1.15;;;0.40;;
351;SDS011;164;50.784;6.496;2023-03-14T07:28:41;2.25;;;0.47;;
351;SDS011;164;50.784;6.496;2023-03-14T07:31:08;1.30;;;0.50;;
351;SDS011;164;50.784;6.496;2023-03-14T07:33:35;1.92;;;0.60;;
351;SDS011;164;50.784;6.496;2023-03-14T07:36:03;0.80;;;0.60;;
351;SDS011;164;50.784;6.496;2023-03-14T07:38:31;0.50;;;0.30;;
351;SDS011;164;50.784;6.496;2023-03-14T07:40:59;0.80;;;0.40;;
351;SDS011;164;50.784;6.496;2023-03-14T07:43:26;0.68;;;0.32;;
351;SDS011;164;50.784;6.496;2023-03-14T07:45:54;0.50;;;0.30;;
351;SDS011;164;50.784;6.496;2023-03-14T07:48:21;0.60;;;0.30;;
351;SDS011;164;50.784;6.496;2023-03-14T07:50:50;0.70;;;0.60;;
351;SDS011;164;50.784;6.496;2023-03-14T07:53:18;0.50;;;0.30;;
351;SDS011;164;50.784;6.496;2023-03-14T07:55:46;0.52;;;0.47;;
351;SDS011;164;50.784;6.496;2023-03-14T07:58:14;0.80;;;0.50;;
351;SDS011;164;50.784;6.496;2023-03-14T08:00:41;3.15;;;1.85;;
351;SDS011;164;50.784;6.496;2023-03-14T08:03:08;1.35;;;0.38;;
351;SDS011;164;50.784;6.496;2023-03-14T08:05:36;0.70;;;0.40;;
351;SDS011;164;50.784;6.496;2023-03-14T08:08:03;0.40;;;0.30;;
351;SDS011;164;50.784;6.496;2023-03-14T08:10:31;0.90;;;0.70;;
351;SDS011;164;50.784;6.496;2023-03-14T08:13:01;1.40;;;0.60;;
351;SDS011;164;50.784;6.496;2023-03-14T08:15:29;0.52;;;0.30;;
351;SDS011;164;50.784;6.496;2023-03-14T08:17:57;1.05;;;0.50;;
351;SDS011;164;50.784;6.496;2023-03-14T08:20:25;0.60;;;0.40;;
351;SDS011;164;50.784;6.496;2023-03-14T08:22:54;0.77;;;0.32;;
351;SDS011;164;50.784;6.496;2023-03-14T08:25:22;3.15;;;0.98;;
351;SDS011;164;50.784;6.496;2023-03-14T08:27:49;1.25;;;0.50;;
351;SDS011;164;50.784;6.496;2023-03-14T08:30:18;1.88;;;0.70;;
351;SDS011;164;50.784;6.496;2023-03-14T08:32:46;1.70;;;0.50;;
351;SDS011;164;50.784;6.496;2023-03-14T08:35:13;0.65;;;0.30;;
351;SDS011;164;50.784;6.496;2023-03-14T08:37:41;0.60;;;0.30;;
351;SDS011;164;50.784;6.496;2023-03-14T08:40:08;0.50;;;0.30;;
351;SDS011;164;50.784;6.496;2023-03-14T08:42:37;0.60;;;0.30;;
351;SDS011;164;50.784;6.496;2023-03-14T08:45:05;0.50;;;0.30;;
351;SDS011;164;50.784;6.496;2023-03-14T08:47:33;0.75;;;0.40;;
351;SDS011;164;50.784;6.496;2023-03-14T08:50:01;0.55;;;0.30;;
351;SDS011;164;50.784;6.496;2023-03-14T08:52:29;0.77;;;0.30;;
351;SDS011;164;50.784;6.496;2023-03-14T08:54:56;1.05;;;0.60;;
351;SDS011;164;50.784;6.496;2023-03-14T08:57:24;0.80;;;0.30;;
351;SDS011;164;50.784;6.496;2023-03-14T08:59:52;0.50;;;0.30;;
351;SDS011;164;50.784;6.496;2023-03-14T09:02:20;1.00;;;0.43;;
351;SDS011;164;50.784;6.496;2023-03-14T09:04:50;0.50;;;0.30;;
351;SDS011;164;50.784;6.496;2023-03-14T09:07:18;0.55;;;0.30;;
351;SDS011;164;50.784;6.496;2023-03-14T09:09:45;1.63;;;0.30;;
351;SDS011;164;50.784;6.496;2023-03-14T09:12:13;1.52;;;0.65;;
351;SDS011;164;50.784;6.496;2023-03-14T09:14:40;0.50;;;0.30;;
351;SDS011;164;50.784;6.496;2023-03-14T09:17:07;1.30;;;0.47;;
351;SDS011;164;50.784;6.496;2023-03-14T09:19:35;1.05;;;0.38;;
351;SDS011;164;50.784;6.496;2023-03-14T09:22:03;0.80;;;0.45;;
351;SDS011;164;50.784;6.496;2023-03-14T09:24:30;1.20;;;0.40;;
351;SDS011;164;50.784;6.496;2023-03-14T09:26:58;0.57;;;0.43;;
351;SDS011;164;50.784;6.496;2023-03-14T09:29:25;0.65;;;0.30;;
351;SDS011;164;50.784;6.496;2023-03-14T09:31:52;1.05;;;0.30;;
351;SDS011;164;50.784;6.496;2023-03-14T09:34:20;0.50;;;0.30;;
351;SDS011;164;50.784;6.496;2023-03-14T09:36:47;2.05;;;0.45;;
351;SDS011;164;50.784;6.496;2023-03-14T09:39:15;0.50;;;0.40;;
351;SDS011;164;50.784;6.496;2023-03-14T09:41:43;0.95;;;0.40;;
351;SDS011;164;50.784;6.496;2023-03-14T09:44:13;0.50;;;0.38;;
351;SDS011;164;50.784;6.496;2023-03-14T09:46:41;0.50;;;0.40;;
351;SDS011;164;50.784;6.496;2023-03-14T09:49:11;0.65;;;0.40;;
351;SDS011;164;50.784;6.496;2023-03-14T09:51:39;1.15;;;0.60;;
351;SDS011;164;50.784;6.496;2023-03-14T09:54:08;0.70;;;0.50;;
351;SDS011;164;50.784;6.496;2023-03-14T09:56:44;0.75;;;0.50;;
351;SDS011;164;50.784;6.496;2023-03-14T09:59:11;1.92;;;0.90;;
351;SDS011;164;50.784;6.496;2023-03-14T10:01:39;1.00;;;0.80;;
351;SDS011;164;50.784;6.496;2023-03-14T10:04:10;0.68;;;0.50;;
351;SDS011;164;50.784;6.496;2023-03-14T10:06:39;1.63;;;0.70;;
351;SDS011;164;50.784;6.496;2023-03-14T10:09:08;1.50;;;0.90;;
351;SDS011;164;50.784;6.496;2023-03-14T10:11:35;1.17;;;1.05;;
351;SDS011;164;50.784;6.496;2023-03-14T10:14:05;1.00;;;0.90;;
351;SDS011;164;50.784;6.496;2023-03-14T10:16:34;0.88;;;0.77;;
351;SDS011;164;50.784;6.496;2023-03-14T10:19:02;1.25;;;1.00;;
351;SDS011;164;50.784;6.496;2023-03-14T10:21:31;1.10;;;1.00;;
351;SDS011;164;50.784;6.496;2023-03-14T10:24:09;1.50;;;1.05;;
351;SDS011;164;50.784;6.496;2023-03-14T10:26:37;3.65;;;1.50;;
351;SDS011;164;50.784;6.496;2023-03-14T10:29:09;1.30;;;1.20;;
351;SDS011;164;50.784;6.496;2023-03-14T10:31:46;2.72;;;1.52;;
351;SDS011;164;50.784;6.496;2023-03-14T10:34:15;2.20;;;1.65;;
351;SDS011;164;50.784;6.496;2023-03-14T10:36:43;2.47;;;2.28;;
351;SDS011;164;50.784;6.496;2023-03-14T10:39:22;2.83;;;2.63;;
351;SDS011;164;50.784;6.496;2023-03-14T10:41:52;2.50;;;2.30;;
351;SDS011;164;50.784;6.496;2023-03-14T10:44:22;3.55;;;2.70;;
351;SDS011;164;50.784;6.496;2023-03-14T10:46:55;2.60;;;2.40;;
351;SDS011;164;50.784;6.496;2023-03-14T10:49:26;2.78;;;2.58;;
351;SDS011;164;50.784;6.496;2023-03-14T10:51:54;2.30;;;2.10;;
351;SDS011;164;50.784;6.496;2023-03-14T10:54:21;3.15;;;2.65;;
351;SDS011;164;50.784;6.496;2023-03-14T10:56:56;3.88;;;2.72;;
351;SDS011;164;50.784;6.496;2023-03-14T10:59:25;2.60;;;2.40;;
351;SDS011;164;50.784;6.496;2023-03-14T11:01:55;2.85;;;2.25;;
351;SDS011;164;50.784;6.496;2023-03-14T11:07:11;2.90;;;2.70;;
351;SDS011;164;50.784;6.496;2023-03-14T11:09:42;3.17;;;2.60;;
351;SDS011;164;50.784;6.496;2023-03-14T11:12:18;3.95;;;2.42;;
351;SDS011;164;50.784;6.496;2023-03-14T11:14:51;3.22;;;3.03;;
351;SDS011;164;50.784;6.496;2023-03-14T11:17:22;3.15;;;2.85;;
351;SDS011;164;50.784;6.496;2023-03-14T11:19:55;3.85;;;3.00;;
351;SDS011;164;50.784;6.496;2023-03-14T11:22:27;2.20;;;2.00;;
351;SDS011;164;50.784;6.496;2023-03-14T11:25:02;2.78;;;1.95;;
351;SDS011;164;50.784;6.496;2023-03-14T11:27:35;5.38;;;1.70;;
351;SDS011;164;50.784;6.496;2023-03-14T11:30:12;2.10;;;1.35;;
351;SDS011;164;50.784;6.496;2023-03-14T11:32:44;2.55;;;1.20;;
351;SDS011;164;50.784;6.496;2023-03-14T11:35:15;0.80;;;0.70;;
351;SDS011;164;50.784;6.496;2023-03-14T11:37:45;0.93;;;0.88;;
351;SDS011;164;50.784;6.496;2023-03-14T11:40:13;1.05;;;0.95;;
351;SDS011;164;50.784;6.496;2023-03-14T11:42:44;1.65;;;1.55;;
351;SDS011;164;50.784;6.496;2023-03-14T11:45:16;1.25;;;1.20;;
351;SDS011;164;50.784;6.496;2023-03-14T11:47:44;1.73;;;1.45;;
351;SDS011;164;50.784;6.496;2023-03-14T11:50:12;1.95;;;1.60;;
351;SDS011;164;50.784;6.496;2023-03-14T11:52:44;2.50;;;1.80;;
351;SDS011;164;50.784;6.496;2023-03-14T11:55:16;2.67;;;1.70;;
351;SDS011;164;50.784;6.496;2023-03-14T11:57:44;1.05;;;0.73;;
351;SDS011;164;50.784;6.496;2023-03-14T12:00:16;2.55;;;0.47;;
351;SDS011;164;50.784;6.496;2023-03-14T12:02:46;0.80;;;0.60;;
351;SDS011;164;50.784;6.496;2023-03-14T12:08:25;0.93;;;0.50;;
351;SDS011;164;50.784;6.496;2023-03-14T12:10:58;0.70;;;0.45;;
351;SDS011;164;50.784;6.496;2023-03-14T12:13:27;1.55;;;0.93;;
351;SDS011;164;50.784;6.496;2023-03-14T12:15:57;2.45;;;2.22;;
351;SDS011;164;50.784;6.496;2023-03-14T12:18:26;1.45;;;0.90;;
351;SDS011;164;50.784;6.496;2023-03-14T12:20:54;1.00;;;0.80;;
351;SDS011;164;50.784;6.496;2023-03-14T12:23:23;1.33;;;1.27;;
351;SDS011;164;50.784;6.496;2023-03-14T12:26:06;1.23;;;1.10;;
351;SDS011;164;50.784;6.496;2023-03-14T12:28:34;1.20;;;1.20;;
351;SDS011;164;50.784;6.496;2023-03-14T12:33:44;1.80;;;1.70;;
351;SDS011;164;50.784;6.496;2023-03-14T12:36:18;2.75;;;1.70;;
351;SDS011;164;50.784;6.496;2023-03-14T12:38:49;2.55;;;1.60;;
351;SDS011;164;50.784;6.496;2023-03-14T12:41:19;1.88;;;1.77;;
351;SDS011;164;50.784;6.496;2023-03-14T12:43:48;4.75;;;2.20;;
351;SDS011;164;50.784;6.496;2023-03-14T12:46:19;2.00;;;1.90;;
351;SDS011;164;50.784;6.496;2023-03-14T12:48:49;3.47;;;1.98;;
351;SDS011;164;50.784;6.496;2023-03-14T12:51:17;2.50;;;2.30;;
351;SDS011;164;50.784;6.496;2023-03-14T12:53:57;2.80;;;2.20;;
351;SDS011;164;50.784;6.496;2023-03-14T12:56:27;6.97;;;2.80;;
351;SDS011;164;50.784;6.496;2023-03-14T12:59:05;3.80;;;2.30;;
351;SDS011;164;50.784;6.496;2023-03-14T13:01:32;2.95;;;2.35;;
351;SDS011;164;50.784;6.496;2023-03-14T13:04:04;4.80;;;2.13;;
351;SDS011;164;50.784;6.496;2023-03-14T13:06:46;4.72;;;1.98;;
351;SDS011;164;50.784;6.496;2023-03-14T13:12:00;4.00;;;1.88;;
351;SDS011;164;50.784;6.496;2023-03-14T13:14:28;3.15;;;1.90;;
351;SDS011;164;50.784;6.496;2023-03-14T13:16:55;8.75;;;1.95;;
351;SDS011;164;50.784;6.496;2023-03-14T13:19:28;7.05;;;2.70;;
351;SDS011;164;50.784;6.496;2023-03-14T13:21:56;4.97;;;1.90;;
351;SDS011;164;50.784;6.496;2023-03-14T13:24:26;3.88;;;3.30;;
351;SDS011;164;50.784;6.496;2023-03-14T13:26:55;5.60;;;1.77;;
351;SDS011;164;50.784;6.496;2023-03-14T13:29:23;4.35;;;2.10;;
351;SDS011;164;50.784;6.496;2023-03-14T13:31:51;3.03;;;1.67;;
351;SDS011;164;50.784;6.496;2023-03-14T13:34:20;3.42;;;1.45;;
351;SDS011;164;50.784;6.496;2023-03-14T13:36:51;4.20;;;2.00;;
351;SDS011;164;50.784;6.496;2023-03-14T13:39:18;2.70;;;1.73;;
351;SDS011;164;50.784;6.496;2023-03-14T13:41:47;4.25;;;1.60;;
351;SDS011;164;50.784;6.496;2023-03-14T13:44:15;6.30;;;1.60;;
351;SDS011;164;50.784;6.496;2023-03-14T13:46:44;6.22;;;2.03;;
351;SDS011;164;50.784;6.496;2023-03-14T13:49:12;2.67;;;1.10;;
351;SDS011;164;50.784;6.496;2023-03-14T13:51:43;4.22;;;1.75;;
351;SDS011;164;50.784;6.496;2023-03-14T13:54:15;4.15;;;1.35;;
351;SDS011;164;50.784;6.496;2023-03-14T13:56:43;5.60;;;1.73;;
351;SDS011;164;50.784;6.496;2023-03-14T13:59:20;3.88;;;2.17;;
351;SDS011;164;50.784;6.496;2023-03-14T14:01:48;10.10;;;2.70;;
351;SDS011;164;50.784;6.496;2023-03-14T14:04:16;8.45;;;2.22;;
351;SDS011;164;50.784;6.496;2023-03-14T14:06:45;3.85;;;2.40;;
351;SDS011;164;50.784;6.496;2023-03-14T14:09:15;7.22;;;2.70;;
351;SDS011;164;50.784;6.496;2023-03-14T14:11:43;5.95;;;2.65;;
351;SDS011;164;50.784;6.496;2023-03-14T14:14:15;6.95;;;2.58;;
351;SDS011;164;50.784;6.496;2023-03-14T14:16:44;6.72;;;2.20;;
351;SDS011;164;50.784;6.496;2023-03-14T14:19:13;11.20;;;3.47;;
351;SDS011;164;50.784;6.496;2023-03-14T14:21:41;11.10;;;3.13;;
351;SDS011;164;50.784;6.496;2023-03-14T14:24:09;9.20;;;3.03;;
351;SDS011;164;50.784;6.496;2023-03-14T14:26:41;7.32;;;3.33;;
351;SDS011;164;50.784;6.496;2023-03-14T14:29:16;9.68;;;2.45;;
351;SDS011;164;50.784;6.496;2023-03-14T14:31:47;6.32;;;2.65;;
351;SDS011;164;50.784;6.496;2023-03-14T14:34:18;13.40;;;3.95;;
351;SDS011;164;50.784;6.496;2023-03-14T14:36:46;12.15;;;3.40;;
351;SDS011;164;50.784;6.496;2023-03-14T14:39:16;4.82;;;2.10;;
351;SDS011;164;50.784;6.496;2023-03-14T14:41:47;7.20;;;2.90;;
351;SDS011;164;50.784;6.496;2023-03-14T14:44:16;9.27;;;2.35;;
351;SDS011;164;50.784;6.496;2023-03-14T14:46:43;12.00;;;3.45;;
351;SDS011;164;50.784;6.496;2023-03-14T14:49:13;4.38;;;2.25;;
351;SDS011;164;50.784;6.496;2023-03-14T14:51:42;4.80;;;2.20;;
351;SDS011;164;50.784;6.496;2023-03-14T14:54:11;8.93;;;2.53;;
351;SDS011;164;50.784;6.496;2023-03-14T14:56:39;7.60;;;2.50;;
351;SDS011;164;50.784;6.496;2023-03-14T14:59:18;5.00;;;2.50;;
351;SDS011;164;50.784;6.496;2023-03-14T15:01:46;7.85;;;2.47;;
351;SDS011;164;50.784;6.496;2023-03-14T15:04:15;7.50;;;3.47;;
351;SDS011;164;50.784;6.496;2023-03-14T15:06:44;6.35;;;2.35;;
351;SDS011;164;50.784;6.496;2023-03-14T15:09:12;6.05;;;2.83;;
351;SDS011;164;50.784;6.496;2023-03-14T15:11:41;8.98;;;2.50;;
351;SDS011;164;50.784;6.496;2023-03-14T15:14:10;8.10;;;3.15;;
351;SDS011;164;50.784;6.496;2023-03-14T15:16:38;6.28;;;2.75;;
351;SDS011;164;50.784;6.496;2023-03-14T15:19:09;9.63;;;2.97;;
351;SDS011;164;50.784;6.496;2023-03-14T15:21:37;8.18;;;2.95;;
351;SDS011;164;50.784;6.496;2023-03-14T15:24:05;9.50;;;4.20;;
351;SDS011;164;50.784;6.496;2023-03-14T15:26:32;7.03;;;3.10;;
351;SDS011;164;50.784;6.496;2023-03-14T15:28:59;11.27;;;3.65;;
351;SDS011;164;50.784;6.496;2023-03-14T15:31:28;10.13;;;4.20;;
351;SDS011;164;50.784;6.496;2023-03-14T15:33:55;13.65;;;4.85;;
351;SDS011;164;50.784;6.496;2023-03-14T15:36:23;6.88;;;2.72;;
351;SDS011;164;50.784;6.496;2023-03-14T15:38:51;6.38;;;3.65;;
351;SDS011;164;50.784;6.496;2023-03-14T15:41:19;9.15;;;3.80;;
351;SDS011;164;50.784;6.496;2023-03-14T15:43:46;10.20;;;4.13;;
351;SDS011;164;50.784;6.496;2023-03-14T15:46:14;9.35;;;3.75;;
351;SDS011;164;50.784;6.496;2023-03-14T15:48:43;7.90;;;4.35;;
351;SDS011;164;50.784;6.496;2023-03-14T15:51:11;5.38;;;2.80;;
351;SDS011;164;50.784;6.496;2023-03-14T15:53:38;9.02;;;5.53;;
351;SDS011;164;50.784;6.496;2023-03-14T15:56:06;8.35;;;3.70;;
351;SDS011;164;50.784;6.496;2023-03-14T15:58:34;8.52;;;4.00;;
351;SDS011;164;50.784;6.496;2023-03-14T16:01:01;12.30;;;3.97;;
351;SDS011;164;50.784;6.496;2023-03-14T16:03:29;7.90;;;3.70;;
351;SDS011;164;50.784;6.496;2023-03-14T16:05:57;8.98;;;3.60;;
351;SDS011;164;50.784;6.496;2023-03-14T16:08:25;8.55;;;3.88;;